sensor_id;sensor_type;location;lat;lon;timestamp;pressure;altitude;pressure_sealevel;temperature;humidity
74529;BME280;63009;52.584;5.932;2023-07-02T00:00:07;100594.78;;;15.96;85.86
74529;BME280;63009;52.584;5.932;2023-07-02T00:02:33;100588.25;;;15.89;83.86
74529;BME280;63009;52.584;5.932;2023-07-02T00:04:58;100593.34;;;15.92;81.75
74529;BME280;63009;52.584;5.932;2023-07-02T00:07:23;100587.81;;;15.84;80.27
74529;BME280;63009;52.584;5.932;2023-07-02T00:09:51;100594.69;;;15.86;80.91
74529;BME280;63009;52.584;5.932;2023-07-02T00:12:16;100600.72;;;15.88;81.27
74529;BME280;63009;52.584;5.932;2023-07-02T00:14:41;100598.06;;;15.88;82.53
74529;BME280;63009;52.584;5.932;2023-07-02T00:17:07;100597.16;;;15.78;83.11
74529;BME280;63009;52.584;5.932;2023-07-02T00:19:32;100594.63;;;15.77;81.62
74529;BME280;63009;52.584;5.932;2023-07-02T00:21:58;100593.66;;;15.78;80.39
74529;BME280;63009;52.584;5.932;2023-07-02T00:24:23;100596.56;;;15.74;79.76
74529;BME280;63009;52.584;5.932;2023-07-02T00:26:48;100586.31;;;15.70;79.60
74529;BME280;63009;52.584;5.932;2023-07-02T00:29:14;100592.59;;;15.69;78.56
74529;BME280;63009;52.584;5.932;2023-07-02T00:31:39;100580.84;;;15.71;77.32
74529;BME280;63009;52.584;5.932;2023-07-02T00:34:05;100587.28;;;15.69;77.84
74529;BME280;63009;52.584;5.932;2023-07-02T00:36:31;100598.78;;;15.69;78.17
74529;BME280;63009;52.584;5.932;2023-07-02T00:38:57;100589.22;;;15.67;78.90
74529;BME280;63009;52.584;5.932;2023-07-02T00:41:23;100594.44;;;15.68;78.11
74529;BME280;63009;52.584;5.932;2023-07-02T00:43:49;100594.81;;;15.64;79.34
74529;BME280;63009;52.584;5.932;2023-07-02T00:46:16;100586.72;;;15.54;79.39
74529;BME280;63009;52.584;5.932;2023-07-02T00:48:54;100581.63;;;15.62;79.39
74529;BME280;63009;52.584;5.932;2023-07-02T00:51:25;100582.22;;;15.55;79.35
74529;BME280;63009;52.584;5.932;2023-07-02T00:53:52;100587.69;;;15.53;79.93
74529;BME280;63009;52.584;5.932;2023-07-02T00:56:18;100586.34;;;15.48;80.50
74529;BME280;63009;52.584;5.932;2023-07-02T00:58:48;100586.00;;;15.52;78.83
74529;BME280;63009;52.584;5.932;2023-07-02T01:01:20;100583.47;;;15.51;78.51
74529;BME280;63009;52.584;5.932;2023-07-02T01:03:59;100571.88;;;15.40;79.44
74529;BME280;63009;52.584;5.932;2023-07-02T01:06:31;100588.81;;;15.39;79.96
74529;BME280;63009;52.584;5.932;2023-07-02T01:08:59;100586.66;;;15.33;81.35
74529;BME280;63009;52.584;5.932;2023-07-02T01:11:37;100579.56;;;15.23;81.51
74529;BME280;63009;52.584;5.932;2023-07-02T01:14:23;100586.72;;;15.22;82.29
74529;BME280;63009;52.584;5.932;2023-07-02T01:16:52;100594.34;;;15.15;82.80
74529;BME280;63009;52.584;5.932;2023-07-02T01:19:21;100599.44;;;15.07;83.42
74529;BME280;63009;52.584;5.932;2023-07-02T01:21:47;100589.16;;;15.03;83.20
74529;BME280;63009;52.584;5.932;2023-07-02T01:24:15;100588.91;;;15.06;83.79
74529;BME280;63009;52.584;5.932;2023-07-02T01:26:41;100592.91;;;15.11;82.90
74529;BME280;63009;52.584;5.932;2023-07-02T01:29:14;100578.25;;;15.06;83.43
74529;BME280;63009;52.584;5.932;2023-07-02T01:31:39;100594.69;;;15.22;81.13
74529;BME280;63009;52.584;5.932;2023-07-02T01:34:05;100601.59;;;15.25;80.50
74529;BME280;63009;52.584;5.932;2023-07-02T01:36:32;100593.84;;;15.22;79.49
74529;BME280;63009;52.584;5.932;2023-07-02T01:38:58;100591.19;;;15.22;79.73
74529;BME280;63009;52.584;5.932;2023-07-02T01:41:23;100607.28;;;15.20;80.50
74529;BME280;63009;52.584;5.932;2023-07-02T01:43:48;100609.47;;;15.15;80.50
74529;BME280;63009;52.584;5.932;2023-07-02T01:46:14;100606.47;;;15.08;81.08
74529;BME280;63009;52.584;5.932;2023-07-02T01:48:39;100605.75;;;15.06;81.41
74529;BME280;63009;52.584;5.932;2023-07-02T01:51:04;100609.13;;;15.08;81.52
74529;BME280;63009;52.584;5.932;2023-07-02T01:53:30;100603.31;;;15.03;81.01
74529;BME280;63009;52.584;5.932;2023-07-02T01:55:55;100591.81;;;15.03;80.94
74529;BME280;63009;52.584;5.932;2023-07-02T01:58:20;100597.38;;;15.11;80.41
74529;BME280;63009;52.584;5.932;2023-07-02T02:00:46;100602.97;;;15.08;80.79
74529;BME280;63009;52.584;5.932;2023-07-02T02:03:11;100595.81;;;15.08;80.77
74529;BME280;63009;52.584;5.932;2023-07-02T02:05:36;100609.72;;;15.12;81.18
74529;BME280;63009;52.584;5.932;2023-07-02T02:08:02;100603.53;;;15.11;80.28
74529;BME280;63009;52.584;5.932;2023-07-02T02:10:27;100595.44;;;15.02;80.65
74529;BME280;63009;52.584;5.932;2023-07-02T02:12:52;100602.34;;;15.04;81.27
74529;BME280;63009;52.584;5.932;2023-07-02T02:15:18;100607.44;;;15.07;80.69
74529;BME280;63009;52.584;5.932;2023-07-02T02:17:43;100596.41;;;15.01;81.17
74529;BME280;63009;52.584;5.932;2023-07-02T02:20:09;100600.78;;;15.02;81.21
74529;BME280;63009;52.584;5.932;2023-07-02T02:22:34;100612.00;;;15.05;80.50
74529;BME280;63009;52.584;5.932;2023-07-02T02:25:00;100610.81;;;15.09;80.71
74529;BME280;63009;52.584;5.932;2023-07-02T02:27:25;100613.34;;;15.11;80.94
74529;BME280;63009;52.584;5.932;2023-07-02T02:29:50;100607.66;;;15.04;81.54
74529;BME280;63009;52.584;5.932;2023-07-02T02:32:15;100614.09;;;15.02;81.88
74529;BME280;63009;52.584;5.932;2023-07-02T02:34:44;100598.75;;;14.94;81.53
74529;BME280;63009;52.584;5.932;2023-07-02T02:37:09;100622.66;;;15.05;81.83
74529;BME280;63009;52.584;5.932;2023-07-02T02:39:35;100617.81;;;15.10;81.66
74529;BME280;63009;52.584;5.932;2023-07-02T02:42:00;100611.78;;;15.08;82.33
74529;BME280;63009;52.584;5.932;2023-07-02T02:44:25;100622.19;;;15.11;82.46
74529;BME280;63009;52.584;5.932;2023-07-02T02:46:50;100607.31;;;14.98;82.69
74529;BME280;63009;52.584;5.932;2023-07-02T02:49:16;100632.19;;;15.19;81.39
74529;BME280;63009;52.584;5.932;2023-07-02T02:51:41;100631.84;;;15.24;81.49
74529;BME280;63009;52.584;5.932;2023-07-02T02:54:06;100630.16;;;15.23;81.42
74529;BME280;63009;52.584;5.932;2023-07-02T02:56:31;100635.47;;;15.23;81.41
74529;BME280;63009;52.584;5.932;2023-07-02T02:58:57;100632.94;;;15.21;81.67
74529;BME280;63009;52.584;5.932;2023-07-02T03:01:22;100633.78;;;15.22;81.11
74529;BME280;63009;52.584;5.932;2023-07-02T03:03:47;100633.28;;;15.17;81.96
74529;BME280;63009;52.584;5.932;2023-07-02T03:06:13;100637.56;;;15.08;82.82
74529;BME280;63009;52.584;5.932;2023-07-02T03:08:39;100628.72;;;15.07;83.20
74529;BME280;63009;52.584;5.932;2023-07-02T03:11:05;100628.72;;;15.07;82.97
74529;BME280;63009;52.584;5.932;2023-07-02T03:13:30;100637.44;;;15.09;82.11
74529;BME280;63009;52.584;5.932;2023-07-02T03:15:55;100625.09;;;15.08;82.41
74529;BME280;63009;52.584;5.932;2023-07-02T03:18:20;100629.31;;;15.11;82.22
74529;BME280;63009;52.584;5.932;2023-07-02T03:20:46;100634.06;;;15.07;82.85
74529;BME280;63009;52.584;5.932;2023-07-02T03:23:11;100630.63;;;15.05;81.90
74529;BME280;63009;52.584;5.932;2023-07-02T03:25:36;100638.53;;;15.07;82.17
74529;BME280;63009;52.584;5.932;2023-07-02T03:28:02;100637.06;;;15.03;82.20
74529;BME280;63009;52.584;5.932;2023-07-02T03:30:27;100634.41;;;14.92;82.82
74529;BME280;63009;52.584;5.932;2023-07-02T03:32:52;100638.16;;;15.00;81.82
74529;BME280;63009;52.584;5.932;2023-07-02T03:35:18;100645.06;;;15.03;82.22
74529;BME280;63009;52.584;5.932;2023-07-02T03:37:43;100641.78;;;14.99;82.44
74529;BME280;63009;52.584;5.932;2023-07-02T03:40:09;100629.09;;;14.92;82.67
74529;BME280;63009;52.584;5.932;2023-07-02T03:42:34;100637.56;;;15.08;83.69
74529;BME280;63009;52.584;5.932;2023-07-02T03:45:00;100645.41;;;15.09;84.86
74529;BME280;63009;52.584;5.932;2023-07-02T03:47:25;100640.69;;;15.13;84.84
74529;BME280;63009;52.584;5.932;2023-07-02T03:49:50;100649.50;;;15.13;83.32
74529;BME280;63009;52.584;5.932;2023-07-02T03:52:15;100632.97;;;15.10;82.66
74529;BME280;63009;52.584;5.932;2023-07-02T03:54:41;100651.56;;;15.21;82.73
74529;BME280;63009;52.584;5.932;2023-07-02T03:57:06;100658.09;;;15.28;82.04
74529;BME280;63009;52.584;5.932;2023-07-02T03:59:31;100652.88;;;15.27;82.34
74529;BME280;63009;52.584;5.932;2023-07-02T04:01:57;100651.31;;;15.24;81.56
74529;BME280;63009;52.584;5.932;2023-07-02T04:04:22;100652.56;;;15.09;82.52
74529;BME280;63009;52.584;5.932;2023-07-02T04:06:47;100661.25;;;15.11;83.50
74529;BME280;63009;52.584;5.932;2023-07-02T04:09:12;100665.63;;;15.12;83.18
74529;BME280;63009;52.584;5.932;2023-07-02T04:11:38;100669.97;;;15.13;82.63
74529;BME280;63009;52.584;5.932;2023-07-02T04:14:03;100666.09;;;15.17;82.05
74529;BME280;63009;52.584;5.932;2023-07-02T04:16:28;100674.44;;;15.24;81.97
74529;BME280;63009;52.584;5.932;2023-07-02T04:18:53;100676.25;;;15.23;82.79
74529;BME280;63009;52.584;5.932;2023-07-02T04:21:19;100674.06;;;15.28;82.74
74529;BME280;63009;52.584;5.932;2023-07-02T04:23:44;100676.59;;;15.30;83.57
74529;BME280;63009;52.584;5.932;2023-07-02T04:26:09;100664.75;;;15.23;83.90
74529;BME280;63009;52.584;5.932;2023-07-02T04:28:35;100676.47;;;15.31;84.06
74529;BME280;63009;52.584;5.932;2023-07-02T04:31:00;100673.69;;;15.33;84.47
74529;BME280;63009;52.584;5.932;2023-07-02T04:33:25;100668.19;;;15.45;85.38
74529;BME280;63009;52.584;5.932;2023-07-02T04:35:51;100685.41;;;15.53;84.69
74529;BME280;63009;52.584;5.932;2023-07-02T04:38:16;100677.00;;;15.57;83.13
74529;BME280;63009;52.584;5.932;2023-07-02T04:40:42;100669.78;;;15.59;83.70
74529;BME280;63009;52.584;5.932;2023-07-02T04:43:10;100670.00;;;15.56;84.83
74529;BME280;63009;52.584;5.932;2023-07-02T04:45:35;100673.63;;;15.66;83.56
74529;BME280;63009;52.584;5.932;2023-07-02T04:48:02;100687.94;;;15.65;83.13
74529;BME280;63009;52.584;5.932;2023-07-02T04:50:28;100688.25;;;15.72;83.51
74529;BME280;63009;52.584;5.932;2023-07-02T04:52:53;100696.84;;;15.76;82.04
74529;BME280;63009;52.584;5.932;2023-07-02T04:55:18;100671.03;;;15.76;82.40
74529;BME280;63009;52.584;5.932;2023-07-02T04:57:44;100687.50;;;15.81;83.12
74529;BME280;63009;52.584;5.932;2023-07-02T05:00:10;100695.84;;;15.88;83.55
74529;BME280;63009;52.584;5.932;2023-07-02T05:02:35;100701.03;;;15.89;82.29
74529;BME280;63009;52.584;5.932;2023-07-02T05:05:01;100680.69;;;15.88;82.09
74529;BME280;63009;52.584;5.932;2023-07-02T05:07:26;100663.78;;;15.78;81.57
74529;BME280;63009;52.584;5.932;2023-07-02T05:09:51;100680.56;;;15.90;81.09
74529;BME280;63009;52.584;5.932;2023-07-02T05:12:18;100693.94;;;16.11;81.32
74529;BME280;63009;52.584;5.932;2023-07-02T05:14:44;100704.31;;;16.14;79.43
74529;BME280;63009;52.584;5.932;2023-07-02T05:17:09;100693.41;;;16.17;81.40
74529;BME280;63009;52.584;5.932;2023-07-02T05:19:34;100701.53;;;16.15;80.90
74529;BME280;63009;52.584;5.932;2023-07-02T05:22:00;100703.34;;;16.15;80.77
74529;BME280;63009;52.584;5.932;2023-07-02T05:24:25;100695.94;;;15.97;82.77
74529;BME280;63009;52.584;5.932;2023-07-02T05:26:50;100690.50;;;15.88;83.18
74529;BME280;63009;52.584;5.932;2023-07-02T05:29:16;100701.69;;;15.82;83.96
74529;BME280;63009;52.584;5.932;2023-07-02T05:31:41;100692.97;;;15.80;83.10
74529;BME280;63009;52.584;5.932;2023-07-02T05:34:07;100696.84;;;15.76;83.76
74529;BME280;63009;52.584;5.932;2023-07-02T05:36:32;100704.97;;;15.74;84.10
74529;BME280;63009;52.584;5.932;2023-07-02T05:38:59;100706.44;;;15.78;82.82
74529;BME280;63009;52.584;5.932;2023-07-02T05:41:24;100701.72;;;15.70;83.87
74529;BME280;63009;52.584;5.932;2023-07-02T05:43:55;100708.25;;;15.78;83.28
74529;BME280;63009;52.584;5.932;2023-07-02T05:46:20;100709.31;;;15.75;83.44
74529;BME280;63009;52.584;5.932;2023-07-02T05:48:45;100698.22;;;15.70;83.34
74529;BME280;63009;52.584;5.932;2023-07-02T05:51:11;100713.09;;;15.72;84.00
74529;BME280;63009;52.584;5.932;2023-07-02T05:53:37;100714.19;;;15.70;83.75
74529;BME280;63009;52.584;5.932;2023-07-02T05:56:02;100716.59;;;15.73;83.47
74529;BME280;63009;52.584;5.932;2023-07-02T05:58:27;100726.16;;;15.76;84.49
74529;BME280;63009;52.584;5.932;2023-07-02T06:00:55;100717.94;;;15.79;83.46
74529;BME280;63009;52.584;5.932;2023-07-02T06:03:20;100719.63;;;15.80;83.06
74529;BME280;63009;52.584;5.932;2023-07-02T06:05:49;100722.66;;;15.75;83.09
74529;BME280;63009;52.584;5.932;2023-07-02T06:08:18;100725.66;;;15.82;83.01
74529;BME280;63009;52.584;5.932;2023-07-02T06:10:46;100727.09;;;15.86;83.33
74529;BME280;63009;52.584;5.932;2023-07-02T06:13:12;100730.53;;;15.77;85.16
74529;BME280;63009;52.584;5.932;2023-07-02T06:15:37;100743.00;;;15.76;86.02
74529;BME280;63009;52.584;5.932;2023-07-02T06:18:02;100732.97;;;15.68;86.64
74529;BME280;63009;52.584;5.932;2023-07-02T06:20:28;100737.56;;;15.78;85.90
74529;BME280;63009;52.584;5.932;2023-07-02T06:22:53;100740.59;;;15.73;87.13
74529;BME280;63009;52.584;5.932;2023-07-02T06:25:19;100747.59;;;15.74;85.73
74529;BME280;63009;52.584;5.932;2023-07-02T06:27:44;100742.63;;;15.81;83.36
74529;BME280;63009;52.584;5.932;2023-07-02T06:30:09;100754.53;;;15.77;83.08
74529;BME280;63009;52.584;5.932;2023-07-02T06:32:35;100750.25;;;15.74;84.57
74529;BME280;63009;52.584;5.932;2023-07-02T06:35:00;100755.38;;;15.77;84.97
74529;BME280;63009;52.584;5.932;2023-07-02T06:37:25;100759.38;;;15.71;85.78
74529;BME280;63009;52.584;5.932;2023-07-02T06:39:51;100758.38;;;15.72;85.05
74529;BME280;63009;52.584;5.932;2023-07-02T06:42:16;100757.28;;;15.75;84.98
74529;BME280;63009;52.584;5.932;2023-07-02T06:44:41;100749.94;;;15.67;86.57
74529;BME280;63009;52.584;5.932;2023-07-02T06:47:07;100765.28;;;15.75;86.69
74529;BME280;63009;52.584;5.932;2023-07-02T06:49:32;100760.44;;;15.80;86.51
74529;BME280;63009;52.584;5.932;2023-07-02T06:51:58;100774.06;;;15.98;86.45
74529;BME280;63009;52.584;5.932;2023-07-02T06:54:25;100761.97;;;15.94;84.82
74529;BME280;63009;52.584;5.932;2023-07-02T06:56:50;100777.31;;;16.13;83.29
74529;BME280;63009;52.584;5.932;2023-07-02T06:59:22;100776.56;;;16.22;83.66
74529;BME280;63009;52.584;5.932;2023-07-02T07:01:49;100790.06;;;16.30;81.83
74529;BME280;63009;52.584;5.932;2023-07-02T07:04:14;100792.63;;;16.31;79.74
74529;BME280;63009;52.584;5.932;2023-07-02T07:06:40;100799.06;;;16.29;79.00
74529;BME280;63009;52.584;5.932;2023-07-02T07:09:05;100796.59;;;16.37;78.57
74529;BME280;63009;52.584;5.932;2023-07-02T07:11:30;100804.22;;;16.42;77.41
74529;BME280;63009;52.584;5.932;2023-07-02T07:13:56;100804.94;;;16.44;77.14
74529;BME280;63009;52.584;5.932;2023-07-02T07:16:21;100806.88;;;16.42;76.05
74529;BME280;63009;52.584;5.932;2023-07-02T07:18:47;100817.22;;;16.35;75.75
74529;BME280;63009;52.584;5.932;2023-07-02T07:21:12;100816.50;;;16.65;77.84
74529;BME280;63009;52.584;5.932;2023-07-02T07:23:38;100810.34;;;17.16;73.79
74529;BME280;63009;52.584;5.932;2023-07-02T07:26:03;100825.63;;;17.65;69.95
74529;BME280;63009;52.584;5.932;2023-07-02T07:28:28;100818.69;;;17.74;68.83
74529;BME280;63009;52.584;5.932;2023-07-02T07:30:53;100828.56;;;17.93;68.11
74529;BME280;63009;52.584;5.932;2023-07-02T07:33:19;100822.06;;;17.86;68.14
74529;BME280;63009;52.584;5.932;2023-07-02T07:35:44;100820.56;;;17.62;69.50
74529;BME280;63009;52.584;5.932;2023-07-02T07:38:09;100822.50;;;17.50;68.87
74529;BME280;63009;52.584;5.932;2023-07-02T07:40:35;100834.72;;;17.53;72.20
74529;BME280;63009;52.584;5.932;2023-07-02T07:43:00;100835.72;;;17.52;73.68
74529;BME280;63009;52.584;5.932;2023-07-02T07:45:25;100836.66;;;17.72;69.21
74529;BME280;63009;52.584;5.932;2023-07-02T07:47:51;100838.03;;;18.06;67.22
74529;BME280;63009;52.584;5.932;2023-07-02T07:50:16;100828.63;;;18.41;65.12
74529;BME280;63009;52.584;5.932;2023-07-02T07:52:42;100834.84;;;18.61;65.19
74529;BME280;63009;52.584;5.932;2023-07-02T07:55:08;100835.53;;;18.63;65.21
74529;BME280;63009;52.584;5.932;2023-07-02T07:57:35;100844.84;;;18.68;64.63
74529;BME280;63009;52.584;5.932;2023-07-02T08:00:01;100843.16;;;18.67;64.99
74529;BME280;63009;52.584;5.932;2023-07-02T08:02:26;100843.88;;;18.89;65.93
74529;BME280;63009;52.584;5.932;2023-07-02T08:04:51;100827.41;;;18.74;64.36
74529;BME280;63009;52.584;5.932;2023-07-02T08:07:17;100835.00;;;18.79;63.81
74529;BME280;63009;52.584;5.932;2023-07-02T08:09:42;100845.13;;;18.94;64.91
74529;BME280;63009;52.584;5.932;2023-07-02T08:12:07;100840.59;;;19.14;63.86
74529;BME280;63009;52.584;5.932;2023-07-02T08:14:33;100831.47;;;18.88;64.13
74529;BME280;63009;52.584;5.932;2023-07-02T08:17:01;100846.84;;;18.76;63.42
74529;BME280;63009;52.584;5.932;2023-07-02T08:19:26;100848.78;;;18.45;64.96
74529;BME280;63009;52.584;5.932;2023-07-02T08:21:52;100831.84;;;18.25;66.50
74529;BME280;63009;52.584;5.932;2023-07-02T08:24:17;100852.38;;;18.15;65.86
74529;BME280;63009;52.584;5.932;2023-07-02T08:26:43;100851.09;;;18.00;66.62
74529;BME280;63009;52.584;5.932;2023-07-02T08:29:09;100850.38;;;17.88;67.06
74529;BME280;63009;52.584;5.932;2023-07-02T08:31:35;100859.63;;;17.74;67.15
74529;BME280;63009;52.584;5.932;2023-07-02T08:34:00;100854.34;;;17.63;66.18
74529;BME280;63009;52.584;5.932;2023-07-02T08:36:25;100861.78;;;17.60;66.27
74529;BME280;63009;52.584;5.932;2023-07-02T08:38:50;100865.81;;;17.75;65.90
74529;BME280;63009;52.584;5.932;2023-07-02T08:41:16;100853.50;;;18.03;67.11
74529;BME280;63009;52.584;5.932;2023-07-02T08:43:42;100858.38;;;18.48;66.46
74529;BME280;63009;52.584;5.932;2023-07-02T08:46:08;100871.94;;;18.75;64.44
74529;BME280;63009;52.584;5.932;2023-07-02T08:48:37;100880.22;;;19.01;63.80
74529;BME280;63009;52.584;5.932;2023-07-02T08:51:02;100871.84;;;19.23;64.43
74529;BME280;63009;52.584;5.932;2023-07-02T08:53:28;100875.34;;;19.43;61.92
74529;BME280;63009;52.584;5.932;2023-07-02T08:56:02;100876.13;;;19.63;63.29
74529;BME280;63009;52.584;5.932;2023-07-02T08:58:27;100868.22;;;19.71;62.44
74529;BME280;63009;52.584;5.932;2023-07-02T09:01:10;100878.88;;;19.44;61.92
74529;BME280;63009;52.584;5.932;2023-07-02T09:03:36;100890.59;;;19.23;61.50
74529;BME280;63009;52.584;5.932;2023-07-02T09:06:06;100895.00;;;19.15;62.65
74529;BME280;63009;52.584;5.932;2023-07-02T09:08:32;100890.31;;;19.26;61.86
74529;BME280;63009;52.584;5.932;2023-07-02T09:11:13;100894.97;;;19.34;63.02
74529;BME280;63009;52.584;5.932;2023-07-02T09:13:43;100908.34;;;19.44;63.04
74529;BME280;63009;52.584;5.932;2023-07-02T09:16:20;100896.75;;;19.63;63.60
74529;BME280;63009;52.584;5.932;2023-07-02T09:18:55;100895.09;;;19.89;63.59
74529;BME280;63009;52.584;5.932;2023-07-02T09:21:21;100896.56;;;19.74;61.92
74529;BME280;63009;52.584;5.932;2023-07-02T09:23:47;100903.97;;;19.43;58.84
74529;BME280;63009;52.584;5.932;2023-07-02T09:26:22;100900.91;;;19.18;61.90
74529;BME280;63009;52.584;5.932;2023-07-02T09:28:47;100899.22;;;19.17;61.88
74529;BME280;63009;52.584;5.932;2023-07-02T09:31:13;100905.69;;;19.24;60.25
74529;BME280;63009;52.584;5.932;2023-07-02T09:33:38;100911.75;;;19.36;59.37
74529;BME280;63009;52.584;5.932;2023-07-02T09:36:04;100905.44;;;19.18;61.07
74529;BME280;63009;52.584;5.932;2023-07-02T09:38:29;100908.97;;;19.09;61.33
74529;BME280;63009;52.584;5.932;2023-07-02T09:40:55;100903.19;;;19.04;60.53
74529;BME280;63009;52.584;5.932;2023-07-02T09:43:21;100914.56;;;19.35;62.88
74529;BME280;63009;52.584;5.932;2023-07-02T09:45:47;100919.88;;;19.64;60.97
74529;BME280;63009;52.584;5.932;2023-07-02T09:48:14;100909.34;;;19.90;59.92
74529;BME280;63009;52.584;5.932;2023-07-02T09:50:44;100904.28;;;20.14;59.93
74529;BME280;63009;52.584;5.932;2023-07-02T09:53:11;100913.78;;;20.26;57.87
74529;BME280;63009;52.584;5.932;2023-07-02T09:55:37;100910.25;;;20.26;56.14
74529;BME280;63009;52.584;5.932;2023-07-02T09:58:03;100905.97;;;20.15;54.70
74529;BME280;63009;52.584;5.932;2023-07-02T10:00:29;100916.50;;;19.99;56.77
74529;BME280;63009;52.584;5.932;2023-07-02T10:02:54;100921.41;;;19.66;56.98
74529;BME280;63009;52.584;5.932;2023-07-02T10:05:29;100917.69;;;19.30;58.59
74529;BME280;63009;52.584;5.932;2023-07-02T10:07:59;100931.94;;;19.31;59.66
74529;BME280;63009;52.584;5.932;2023-07-02T10:10:36;100902.72;;;19.27;60.54
74529;BME280;63009;52.584;5.932;2023-07-02T10:13:02;100919.22;;;19.33;60.92
74529;BME280;63009;52.584;5.932;2023-07-02T10:15:28;100941.25;;;19.17;59.83
74529;BME280;63009;52.584;5.932;2023-07-02T10:17:55;100941.53;;;18.94;60.24
74529;BME280;63009;52.584;5.932;2023-07-02T10:20:31;100940.38;;;18.68;60.34
74529;BME280;63009;52.584;5.932;2023-07-02T10:22:59;100941.84;;;18.72;62.44
74529;BME280;63009;52.584;5.932;2023-07-02T10:25:28;100941.00;;;19.01;63.27
74529;BME280;63009;52.584;5.932;2023-07-02T10:27:54;100931.78;;;19.32;62.17
74529;BME280;63009;52.584;5.932;2023-07-02T10:30:34;100921.13;;;19.69;62.49
74529;BME280;63009;52.584;5.932;2023-07-02T10:33:12;100902.09;;;19.63;61.09
74529;BME280;63009;52.584;5.932;2023-07-02T10:35:39;100923.91;;;19.87;58.91
74529;BME280;63009;52.584;5.932;2023-07-02T10:38:06;100932.22;;;20.11;58.07
74529;BME280;63009;52.584;5.932;2023-07-02T10:40:32;100928.38;;;20.24;56.18
74529;BME280;63009;52.584;5.932;2023-07-02T10:43:00;100925.94;;;20.58;55.88
74529;BME280;63009;52.584;5.932;2023-07-02T10:45:33;100926.88;;;20.84;57.09
74529;BME280;63009;52.584;5.932;2023-07-02T10:47:58;100932.53;;;20.81;55.47
74529;BME280;63009;52.584;5.932;2023-07-02T10:50:24;100935.47;;;20.70;56.41
74529;BME280;63009;52.584;5.932;2023-07-02T10:52:50;100933.16;;;20.75;56.19
74529;BME280;63009;52.584;5.932;2023-07-02T10:55:17;100941.13;;;20.67;54.50
74529;BME280;63009;52.584;5.932;2023-07-02T10:57:43;100940.25;;;20.49;56.25
74529;BME280;63009;52.584;5.932;2023-07-02T11:00:09;100944.94;;;20.47;56.94
74529;BME280;63009;52.584;5.932;2023-07-02T11:02:37;100942.03;;;20.30;57.11
74529;BME280;63009;52.584;5.932;2023-07-02T11:05:06;100950.31;;;20.47;57.07
74529;BME280;63009;52.584;5.932;2023-07-02T11:07:34;100947.97;;;20.61;56.11
74529;BME280;63009;52.584;5.932;2023-07-02T11:10:00;100957.69;;;20.62;55.57
74529;BME280;63009;52.584;5.932;2023-07-02T11:12:29;100949.13;;;20.77;56.39
74529;BME280;63009;52.584;5.932;2023-07-02T11:14:55;100951.88;;;21.02;56.60
74529;BME280;63009;52.584;5.932;2023-07-02T11:17:31;100961.25;;;21.34;55.59
74529;BME280;63009;52.584;5.932;2023-07-02T11:19:56;100951.84;;;21.38;51.09
74529;BME280;63009;52.584;5.932;2023-07-02T11:22:31;100950.97;;;21.12;49.44
74529;BME280;63009;52.584;5.932;2023-07-02T11:24:57;100967.63;;;21.33;50.91
74529;BME280;63009;52.584;5.932;2023-07-02T11:27:33;100963.38;;;20.95;52.13
74529;BME280;63009;52.584;5.932;2023-07-02T11:30:01;100961.91;;;20.65;52.68
74529;BME280;63009;52.584;5.932;2023-07-02T11:32:27;100972.00;;;20.26;53.99
74529;BME280;63009;52.584;5.932;2023-07-02T11:34:55;100967.38;;;20.55;56.52
74529;BME280;63009;52.584;5.932;2023-07-02T11:37:21;100962.34;;;20.42;53.79
74529;BME280;63009;52.584;5.932;2023-07-02T11:39:46;100963.25;;;20.24;54.98
74529;BME280;63009;52.584;5.932;2023-07-02T11:42:12;100964.28;;;20.68;55.93
74529;BME280;63009;52.584;5.932;2023-07-02T11:44:37;100967.69;;;20.70;55.23
74529;BME280;63009;52.584;5.932;2023-07-02T11:47:03;100980.91;;;20.54;55.80
74529;BME280;63009;52.584;5.932;2023-07-02T11:49:28;100974.09;;;20.41;54.72
74529;BME280;63009;52.584;5.932;2023-07-02T11:51:54;100985.00;;;20.30;52.85
74529;BME280;63009;52.584;5.932;2023-07-02T11:54:19;100982.84;;;20.34;55.21
74529;BME280;63009;52.584;5.932;2023-07-02T11:56:47;100990.66;;;20.27;54.27
74529;BME280;63009;52.584;5.932;2023-07-02T11:59:12;100984.28;;;20.01;54.87
74529;BME280;63009;52.584;5.932;2023-07-02T12:01:37;100994.94;;;19.73;56.63
74529;BME280;63009;52.584;5.932;2023-07-02T12:04:05;100979.16;;;19.51;56.43
74529;BME280;63009;52.584;5.932;2023-07-02T12:06:32;100992.00;;;19.47;54.71
74529;BME280;63009;52.584;5.932;2023-07-02T12:08:58;100994.56;;;19.30;55.05
74529;BME280;63009;52.584;5.932;2023-07-02T12:11:23;101000.34;;;19.15;55.71
74529;BME280;63009;52.584;5.932;2023-07-02T12:13:48;100992.72;;;19.01;56.82
74529;BME280;63009;52.584;5.932;2023-07-02T12:16:13;101002.44;;;19.12;57.53
74529;BME280;63009;52.584;5.932;2023-07-02T12:18:39;101018.25;;;19.24;56.40
74529;BME280;63009;52.584;5.932;2023-07-02T12:21:04;101020.19;;;19.42;55.25
74529;BME280;63009;52.584;5.932;2023-07-02T12:23:29;101016.69;;;19.22;54.22
74529;BME280;63009;52.584;5.932;2023-07-02T12:25:55;101004.41;;;19.00;52.36
74529;BME280;63009;52.584;5.932;2023-07-02T12:28:20;101014.03;;;19.03;52.81
74529;BME280;63009;52.584;5.932;2023-07-02T12:30:45;101017.94;;;18.98;52.87
74529;BME280;63009;52.584;5.932;2023-07-02T12:33:11;101008.47;;;18.85;51.15
74529;BME280;63009;52.584;5.932;2023-07-02T12:35:36;101002.41;;;18.83;52.25
74529;BME280;63009;52.584;5.932;2023-07-02T12:38:01;101014.50;;;18.67;55.10
74529;BME280;63009;52.584;5.932;2023-07-02T12:40:28;101010.28;;;18.65;55.76
74529;BME280;63009;52.584;5.932;2023-07-02T12:42:54;101013.94;;;18.64;56.23
74529;BME280;63009;52.584;5.932;2023-07-02T12:45:19;101025.28;;;19.06;55.49